createdAt,value
2018-06-23T00:00:31.290Z,59.80
2018-06-23T00:02:59.667Z,59.80
2018-06-23T00:05:28.151Z,60.00
2018-06-23T00:07:56.581Z,60.30
2018-06-23T00:10:24.961Z,60.50
2018-06-23T00:12:53.456Z,60.60
2018-06-23T00:15:21.845Z,60.60
2018-06-23T00:17:50.338Z,60.80
2018-06-23T00:20:18.723Z,60.60
2018-06-23T00:22:47.426Z,60.90
2018-06-23T00:25:21.248Z,60.50
2018-06-23T00:27:49.747Z,60.60
2018-06-23T00:30:18.143Z,60.90
2018-06-23T00:32:46.966Z,60.80
2018-06-23T00:35:15.345Z,60.70
2018-06-23T00:37:43.734Z,61.10
2018-06-23T00:40:12.116Z,61.00
2018-06-23T00:42:40.685Z,60.70
2018-06-23T00:45:09.178Z,60.80
2018-06-23T00:47:38.571Z,61.10
2018-06-23T00:50:07.058Z,61.30
2018-06-23T00:52:35.542Z,62.00
2018-06-23T00:55:04.013Z,61.50
2018-06-23T00:57:32.424Z,61.70
2018-06-23T01:00:01.065Z,61.90
2018-06-23T01:02:29.707Z,61.50
2018-06-23T01:04:58.108Z,61.70
2018-06-23T01:07:26.487Z,61.50
2018-06-23T01:09:54.848Z,61.40
2018-06-23T01:12:23.310Z,61.80
2018-06-23T01:14:51.680Z,61.80
2018-06-23T01:17:20.102Z,62.00
2018-06-23T01:19:48.541Z,62.10
2018-06-23T01:22:16.975Z,62.10
2018-06-23T01:24:45.338Z,62.50
2018-06-23T01:27:13.817Z,62.50
2018-06-23T01:29:42.182Z,62.70
2018-06-23T01:32:10.563Z,62.50
2018-06-23T01:34:38.912Z,62.50
2018-06-23T01:37:07.450Z,62.60
2018-06-23T01:39:35.797Z,62.80
2018-06-23T01:42:04.247Z,62.80
2018-06-23T01:44:32.657Z,62.90
2018-06-23T01:47:01.218Z,63.00
2018-06-23T01:49:29.578Z,62.80
2018-06-23T01:51:57.965Z,62.90
2018-06-23T01:54:26.680Z,62.90
2018-06-23T01:56:55.244Z,63.00
2018-06-23T01:59:23.730Z,62.90
2018-06-23T02:01:52.132Z,62.80
2018-06-23T02:04:20.608Z,63.20
2018-06-23T02:06:48.993Z,63.40
2018-06-23T02:09:17.371Z,63.60
2018-06-23T02:11:45.797Z,63.40
2018-06-23T02:14:19.448Z,63.80
2018-06-23T02:16:53.072Z,63.90
2018-06-23T02:19:26.831Z,63.80
2018-06-23T02:22:59.546Z,64.10
2018-06-23T02:25:33.229Z,64.30
2018-06-23T02:28:07.209Z,64.40
2018-06-23T02:30:41.728Z,64.60
2018-06-23T02:33:15.427Z,64.90
2018-06-23T02:35:43.811Z,64.90
2018-06-23T02:38:12.327Z,65.00
2018-06-23T02:40:40.689Z,65.00
2018-06-23T02:43:09.081Z,65.20
2018-06-23T02:45:37.627Z,65.30
2018-06-23T02:50:34.099Z,65.10
2018-06-23T02:53:02.607Z,65.30
2018-06-23T02:55:31.051Z,65.40
2018-06-23T02:57:59.452Z,65.30
2018-06-23T03:00:27.801Z,65.30
2018-06-23T03:02:56.300Z,65.60
2018-06-23T03:05:24.921Z,65.70
2018-06-23T03:07:53.373Z,65.90
2018-06-23T03:10:21.779Z,66.00
2018-06-23T03:12:50.547Z,66.00
2018-06-23T03:15:18.910Z,65.90
2018-06-23T03:17:47.299Z,65.90
2018-06-23T03:20:15.733Z,66.00
2018-06-23T03:22:44.146Z,65.90
2018-06-23T03:25:12.541Z,65.80
2018-06-23T03:27:40.851Z,65.80
2018-06-23T03:30:09.225Z,66.20
2018-06-23T03:32:37.549Z,66.10
2018-06-23T03:35:06.033Z,66.40
2018-06-23T03:37:34.413Z,66.30
2018-06-23T03:40:03.313Z,66.50
2018-06-23T03:42:31.786Z,66.20
2018-06-23T03:45:00.123Z,66.60
2018-06-23T03:47:28.533Z,66.50
2018-06-23T03:49:56.986Z,66.60
2018-06-23T03:52:25.388Z,66.60
2018-06-23T03:54:53.769Z,66.60
2018-06-23T03:57:22.231Z,67.00
2018-06-23T03:59:50.732Z,67.10
2018-06-23T04:02:19.130Z,67.00
2018-06-23T04:04:47.546Z,67.20
2018-06-23T04:07:15.958Z,67.30
2018-06-23T04:09:44.331Z,68.50
2018-06-23T04:12:12.811Z,67.40
2018-06-23T04:14:41.301Z,67.40
2018-06-23T04:17:09.753Z,67.70
2018-06-23T04:19:38.174Z,67.90
2018-06-23T04:22:06.562Z,67.60
2018-06-23T04:24:35.023Z,67.70
2018-06-23T04:27:03.370Z,68.00
2018-06-23T04:29:31.774Z,68.00
2018-06-23T04:32:00.212Z,68.20
2018-06-23T04:34:29.610Z,68.50
2018-06-23T04:36:57.980Z,68.50
2018-06-23T04:39:26.457Z,68.50
2018-06-23T04:41:54.864Z,68.20
2018-06-23T04:44:23.258Z,68.20
2018-06-23T04:46:51.636Z,68.30
2018-06-23T04:49:19.983Z,67.90
2018-06-23T04:51:48.405Z,67.90
2018-06-23T04:54:16.882Z,68.10
2018-06-23T04:56:45.364Z,68.60
2018-06-23T04:59:13.858Z,67.90
2018-06-23T05:01:42.340Z,67.90
2018-06-23T05:04:10.698Z,68.10
2018-06-23T05:06:39.082Z,67.60
2018-06-23T05:09:07.904Z,67.80
2018-06-23T05:11:36.444Z,67.80
2018-06-23T05:14:04.951Z,67.70
2018-06-23T05:16:33.416Z,67.20
2018-06-23T05:19:01.919Z,67.10
2018-06-23T05:21:30.261Z,66.70
2018-06-23T05:23:58.647Z,66.60
2018-06-23T05:26:27.030Z,66.40
2018-06-23T05:28:55.400Z,66.30
2018-06-23T05:31:23.778Z,66.40
2018-06-23T05:33:52.122Z,66.70
2018-06-23T05:36:20.505Z,66.70
2018-06-23T05:38:49.018Z,66.70
2018-06-23T05:41:17.442Z,66.80
2018-06-23T05:43:45.897Z,67.70
2018-06-23T05:46:14.386Z,66.90
2018-06-23T05:48:43.644Z,68.20
2018-06-23T05:51:12.038Z,67.00
2018-06-23T05:53:40.771Z,66.70
2018-06-23T05:56:09.207Z,66.50
2018-06-23T05:58:37.606Z,66.10
2018-06-23T06:01:06.062Z,65.90
2018-06-23T06:03:34.508Z,65.80
2018-06-23T06:06:03.299Z,65.60
2018-06-23T06:10:59.977Z,65.00
2018-06-23T06:13:28.488Z,64.70
2018-06-23T06:15:56.873Z,64.80
2018-06-23T06:18:25.288Z,64.50
2018-06-23T06:20:53.697Z,64.10
2018-06-23T06:23:22.172Z,64.30
2018-06-23T06:25:50.598Z,64.10
2018-06-23T06:28:19.090Z,64.00
2018-06-23T06:30:47.527Z,64.30
2018-06-23T06:33:16.046Z,63.90
2018-06-23T06:35:44.525Z,63.70
2018-06-23T06:38:13.060Z,63.90
2018-06-23T06:40:42.026Z,63.50
2018-06-23T06:43:10.442Z,63.00
2018-06-23T06:45:38.867Z,63.20
2018-06-23T06:48:07.457Z,63.40
2018-06-23T06:50:35.991Z,62.30
2018-06-23T06:53:04.638Z,62.70
2018-06-23T06:55:33.267Z,62.60
2018-06-23T06:58:01.843Z,62.70
2018-06-23T07:00:30.362Z,62.30
2018-06-23T07:02:58.865Z,61.90
2018-06-23T07:05:27.217Z,61.80
2018-06-23T07:07:55.591Z,61.80
2018-06-23T07:10:24.117Z,61.90
2018-06-23T07:12:52.691Z,61.50
2018-06-23T07:15:21.156Z,61.80
2018-06-23T07:17:49.678Z,61.30
2018-06-23T07:20:18.074Z,60.80
2018-06-23T07:22:46.663Z,60.40
2018-06-23T07:25:15.174Z,59.90
2018-06-23T07:27:43.757Z,60.10
2018-06-23T07:30:12.265Z,60.00
2018-06-23T07:32:41.058Z,60.20
2018-06-23T07:35:09.743Z,60.00
2018-06-23T07:37:38.180Z,59.70
2018-06-23T07:40:06.865Z,60.20
2018-06-23T07:42:35.403Z,60.10
2018-06-23T07:45:04.460Z,60.00
2018-06-23T07:47:33.074Z,59.50
2018-06-23T07:50:01.767Z,59.20
2018-06-23T07:52:30.401Z,59.40
2018-06-23T07:54:58.961Z,59.40
2018-06-23T07:57:27.465Z,59.00
2018-06-23T07:59:55.863Z,59.20
2018-06-23T08:02:24.342Z,59.30
2018-06-23T08:04:53.262Z,59.00
2018-06-23T08:07:21.770Z,58.80
2018-06-23T08:09:50.498Z,58.00
2018-06-23T08:12:19.022Z,58.70
2018-06-23T08:14:47.554Z,57.30
2018-06-23T08:17:15.998Z,56.80
2018-06-23T08:19:44.523Z,56.60
2018-06-23T08:22:13.017Z,56.70
2018-06-23T08:24:41.896Z,56.60
2018-06-23T08:27:10.481Z,56.20
2018-06-23T08:29:38.885Z,55.80
2018-06-23T08:32:07.383Z,56.00
2018-06-23T08:34:35.882Z,55.90
2018-06-23T08:37:04.401Z,55.50
2018-06-23T08:39:32.851Z,56.00
2018-06-23T08:42:01.378Z,56.30
2018-06-23T08:44:30.213Z,56.30
2018-06-23T08:46:58.700Z,55.40
2018-06-23T08:49:27.252Z,55.20
2018-06-23T08:51:55.887Z,55.00
2018-06-23T08:54:24.812Z,54.30
2018-06-23T08:56:53.625Z,54.90
2018-06-23T08:59:22.295Z,54.70
2018-06-23T09:01:51.032Z,54.50
2018-06-23T09:04:19.677Z,54.10
2018-06-23T09:06:48.071Z,54.00
2018-06-23T09:09:16.466Z,54.20
2018-06-23T09:14:13.086Z,53.80
2018-06-23T09:16:41.535Z,54.30
2018-06-23T09:19:09.957Z,54.50
2018-06-23T09:21:38.497Z,53.70
2018-06-23T09:24:06.912Z,52.90
2018-06-23T09:26:35.420Z,53.10
2018-06-23T09:29:03.904Z,53.60
2018-06-23T09:31:32.302Z,53.40
2018-06-23T09:34:00.777Z,53.80
2018-06-23T09:36:29.174Z,53.00
2018-06-23T09:38:57.670Z,52.90
2018-06-23T09:41:26.097Z,52.80
2018-06-23T09:43:54.517Z,53.10
2018-06-23T09:46:22.946Z,53.50
2018-06-23T09:51:19.486Z,53.70
2018-06-23T09:53:48.065Z,51.80
2018-06-23T09:56:16.462Z,51.00
2018-06-23T09:58:44.850Z,50.30
2018-06-23T10:01:13.282Z,50.30
2018-06-23T10:03:43.731Z,50.90
2018-06-23T10:06:12.361Z,51.80
2018-06-23T10:08:42.339Z,52.00
2018-06-23T10:11:11.123Z,51.90
2018-06-23T10:13:40.060Z,51.50
2018-06-23T10:16:08.794Z,51.10
2018-06-23T10:18:37.307Z,50.40
2018-06-23T10:21:05.876Z,50.80
2018-06-23T10:23:34.283Z,50.80
2018-06-23T10:26:02.734Z,50.80
2018-06-23T10:28:31.225Z,51.00
2018-06-23T10:30:59.755Z,51.40
2018-06-23T10:33:28.223Z,51.00
2018-06-23T10:35:56.714Z,50.50
2018-06-23T10:38:25.224Z,50.10
2018-06-23T10:40:53.726Z,49.40
2018-06-23T10:43:22.185Z,50.10
2018-06-23T10:45:50.718Z,49.40
2018-06-23T10:48:19.121Z,49.60
2018-06-23T10:50:47.607Z,50.10
2018-06-23T10:53:16.011Z,49.20
2018-06-23T10:55:44.659Z,49.80
2018-06-23T10:58:13.308Z,49.60
2018-06-23T11:00:41.734Z,49.80
2018-06-23T11:05:38.318Z,49.60
2018-06-23T11:08:06.860Z,48.80
2018-06-23T11:10:35.297Z,48.60
2018-06-23T11:13:03.791Z,48.40
2018-06-23T11:15:32.285Z,48.80
2018-06-23T11:18:00.933Z,47.80
2018-06-23T11:20:29.309Z,47.00
2018-06-23T11:22:57.739Z,47.10
2018-06-23T11:25:26.178Z,47.20
2018-06-23T11:27:54.812Z,47.10
2018-06-23T11:30:23.559Z,47.40
2018-06-23T11:32:52.170Z,47.30
2018-06-23T11:37:48.943Z,46.30
2018-06-23T11:40:17.435Z,46.10
2018-06-23T11:45:14.279Z,47.50
2018-06-23T11:47:42.708Z,47.50
2018-06-23T11:50:11.259Z,46.90
2018-06-23T11:52:39.977Z,46.40
2018-06-23T11:55:08.611Z,44.80
2018-06-23T11:57:37.082Z,43.60
2018-06-23T12:00:06.438Z,44.40
2018-06-23T12:02:34.837Z,44.90
2018-06-23T12:05:03.421Z,44.00
2018-06-23T12:07:31.926Z,44.70
2018-06-23T12:10:00.344Z,44.40
2018-06-23T12:12:28.757Z,43.70
2018-06-23T12:14:57.437Z,43.90
2018-06-23T12:17:25.932Z,43.70
2018-06-23T12:19:54.414Z,42.90
2018-06-23T12:22:22.816Z,42.50
2018-06-23T12:24:51.238Z,42.50
2018-06-23T12:27:19.707Z,42.60
2018-06-23T12:29:48.087Z,41.90
2018-06-23T12:32:16.521Z,41.70
2018-06-23T12:34:44.905Z,41.10
2018-06-23T12:37:13.470Z,41.60
2018-06-23T12:39:41.836Z,41.70
2018-06-23T12:42:10.336Z,41.10
2018-06-23T12:44:38.766Z,40.90
2018-06-23T12:47:07.229Z,40.80
2018-06-23T12:49:35.618Z,40.40
2018-06-23T12:52:04.185Z,40.30
2018-06-23T12:54:32.707Z,40.40
2018-06-23T12:57:01.245Z,40.60
2018-06-23T12:59:29.746Z,40.30
2018-06-23T13:01:58.335Z,38.50
2018-06-23T13:04:26.960Z,39.40
2018-06-23T13:06:55.476Z,38.70
2018-06-23T13:09:23.874Z,38.70
2018-06-23T13:11:52.262Z,38.40
2018-06-23T13:14:20.966Z,39.00
2018-06-23T13:16:49.390Z,38.00
2018-06-23T13:19:17.854Z,38.10
2018-06-23T13:21:46.369Z,37.70
2018-06-23T13:24:14.857Z,37.00
2018-06-23T13:26:43.300Z,38.10
2018-06-23T13:29:12.065Z,37.70
2018-06-23T13:31:40.581Z,37.10
2018-06-23T13:34:09.027Z,37.60
2018-06-23T13:36:37.517Z,38.10
2018-06-23T13:39:08.105Z,38.10
2018-06-23T13:41:36.795Z,37.70
2018-06-23T13:44:05.391Z,37.40
2018-06-23T13:46:34.060Z,37.30
2018-06-23T13:49:02.457Z,36.90
2018-06-23T13:51:30.976Z,37.10
2018-06-23T13:53:59.499Z,36.70
2018-06-23T13:56:27.928Z,35.90
2018-06-23T13:58:56.554Z,35.60
2018-06-23T14:01:24.998Z,36.00
2018-06-23T14:03:53.378Z,36.20
2018-06-23T14:06:21.810Z,36.60
2018-06-23T14:08:50.220Z,36.00
2018-06-23T14:11:18.644Z,35.70
2018-06-23T14:13:47.151Z,35.90
2018-06-23T14:16:15.730Z,36.50
2018-06-23T14:18:44.483Z,35.10
2018-06-23T14:21:13.430Z,34.80
2018-06-23T14:23:41.830Z,35.50
2018-06-23T14:26:10.530Z,34.30
2018-06-23T14:28:38.983Z,34.60
2018-06-23T14:31:07.485Z,35.10
2018-06-23T14:33:35.923Z,35.70
2018-06-23T14:36:04.401Z,34.80
2018-06-23T14:38:33.040Z,35.40
2018-06-23T14:41:01.630Z,35.20
2018-06-23T14:43:29.985Z,34.70
2018-06-23T14:45:58.413Z,35.40
2018-06-23T14:48:26.949Z,35.30
2018-06-23T14:50:55.521Z,36.00
2018-06-23T14:53:23.946Z,35.10
2018-06-23T14:55:52.337Z,35.80
2018-06-23T14:58:20.753Z,35.90
2018-06-23T15:00:49.512Z,36.10
2018-06-23T15:03:18.002Z,36.30
2018-06-23T15:05:46.407Z,36.00
2018-06-23T15:08:26.052Z,36.20
2018-06-23T15:11:05.873Z,36.10
2018-06-23T15:13:34.398Z,35.90
2018-06-23T15:16:02.847Z,34.70
2018-06-23T15:18:31.292Z,35.10
2018-06-23T15:20:59.837Z,35.40
2018-06-23T15:23:28.275Z,35.10
2018-06-23T15:25:56.855Z,34.90
2018-06-23T15:28:25.491Z,34.60
2018-06-23T15:30:53.924Z,35.10
2018-06-23T15:33:22.462Z,34.70
2018-06-23T15:35:50.902Z,34.80
2018-06-23T15:38:19.401Z,35.20
2018-06-23T15:40:47.790Z,35.20
2018-06-23T15:43:16.269Z,34.20
2018-06-23T15:45:44.663Z,34.10
2018-06-23T15:48:13.083Z,34.50
2018-06-23T15:50:41.502Z,34.10
2018-06-23T15:53:09.963Z,34.50
2018-06-23T15:55:38.707Z,34.10
2018-06-23T15:58:07.162Z,34.10
2018-06-23T16:00:35.594Z,34.30
2018-06-23T16:03:04.050Z,34.60
2018-06-23T16:05:32.598Z,34.80
2018-06-23T16:08:01.071Z,35.20
2018-06-23T16:10:29.802Z,35.20
2018-06-23T16:12:58.185Z,35.20
2018-06-23T16:15:26.648Z,34.60
2018-06-23T16:17:55.015Z,35.00
2018-06-23T16:20:23.467Z,35.40
2018-06-23T16:22:51.850Z,35.50
2018-06-23T16:25:20.351Z,36.00
2018-06-23T16:27:48.761Z,36.30
2018-06-23T16:30:17.193Z,36.20
2018-06-23T16:32:45.763Z,36.40
2018-06-23T16:35:14.425Z,36.40
2018-06-23T16:37:42.698Z,37.10
2018-06-23T16:40:11.129Z,37.20
2018-06-23T16:42:39.598Z,36.90
2018-06-23T16:45:08.035Z,37.00
2018-06-23T16:47:36.477Z,37.20
2018-06-23T16:50:04.886Z,37.20
2018-06-23T16:55:01.471Z,37.40
2018-06-23T16:57:29.898Z,37.50
2018-06-23T16:59:58.405Z,37.70
2018-06-23T17:02:26.957Z,38.30
2018-06-23T17:04:55.334Z,38.90
2018-06-23T17:07:23.706Z,39.30
2018-06-23T17:09:52.119Z,39.80
2018-06-23T17:12:20.578Z,39.80
2018-06-23T17:14:49.067Z,39.80
2018-06-23T17:17:17.582Z,40.20
2018-06-23T17:19:46.047Z,40.10
2018-06-23T17:22:14.765Z,40.30
2018-06-23T17:24:43.351Z,40.80
2018-06-23T17:27:11.826Z,41.10
2018-06-23T17:29:40.299Z,41.40
2018-06-23T17:32:08.795Z,41.70
2018-06-23T17:34:37.316Z,42.20
2018-06-23T17:37:06.329Z,42.40
2018-06-23T17:42:03.031Z,42.60
2018-06-23T17:44:31.450Z,42.90
2018-06-23T17:47:00.033Z,43.30
2018-06-23T17:51:56.850Z,44.00
2018-06-23T17:54:25.302Z,43.50
2018-06-23T17:56:53.754Z,43.90
2018-06-23T17:59:22.176Z,44.10
2018-06-23T18:01:50.674Z,43.90
2018-06-23T18:04:19.122Z,44.00
2018-06-23T18:06:47.556Z,44.10
2018-06-23T18:09:16.030Z,44.30
2018-06-23T18:11:44.430Z,44.60
2018-06-23T18:14:12.945Z,44.60
2018-06-23T18:16:41.522Z,44.90
2018-06-23T18:19:10.026Z,45.30
2018-06-23T18:21:38.613Z,45.20
2018-06-23T18:24:07.169Z,45.70
2018-06-23T18:26:35.600Z,46.30
2018-06-23T18:29:04.172Z,46.30
2018-06-23T18:31:32.611Z,46.10
2018-06-23T18:34:01.118Z,46.40
2018-06-23T18:36:29.541Z,47.30
2018-06-23T18:38:57.988Z,46.80
2018-06-23T18:41:26.362Z,46.80
2018-06-23T18:43:54.825Z,47.00
2018-06-23T18:46:23.373Z,47.10
2018-06-23T18:48:51.790Z,47.10
2018-06-23T18:51:20.539Z,47.10
2018-06-23T18:53:49.134Z,47.00
2018-06-23T18:56:17.653Z,46.80
2018-06-23T18:58:46.147Z,47.20
2018-06-23T19:01:14.697Z,47.50
2018-06-23T19:03:43.283Z,47.40
2018-06-23T19:06:11.716Z,47.20
2018-06-23T19:08:40.235Z,47.20
2018-06-23T19:11:08.943Z,47.30
2018-06-23T19:13:37.417Z,47.30
2018-06-23T19:16:06.027Z,47.40
2018-06-23T19:18:34.490Z,47.50
2018-06-23T19:21:03.027Z,47.30
2018-06-23T19:23:31.511Z,47.30
2018-06-23T19:26:00.021Z,47.60
2018-06-23T19:28:28.449Z,47.70
2018-06-23T19:30:57.006Z,47.80
2018-06-23T19:33:25.561Z,47.80
2018-06-23T19:35:53.990Z,48.20
2018-06-23T19:38:22.540Z,48.00
2018-06-23T19:40:51.184Z,48.20
2018-06-23T19:43:19.578Z,48.40
2018-06-23T19:45:47.977Z,48.60
2018-06-23T19:48:16.515Z,48.40
2018-06-23T19:50:44.894Z,48.90
2018-06-23T19:53:13.514Z,48.70
2018-06-23T19:55:42.104Z,48.90
2018-06-23T19:58:10.760Z,48.60
2018-06-23T20:00:39.190Z,48.50
2018-06-23T20:03:08.077Z,48.70
2018-06-23T20:05:36.464Z,48.90
2018-06-23T20:08:05.010Z,48.90
2018-06-23T20:10:33.450Z,48.90
2018-06-23T20:13:01.993Z,48.90
2018-06-23T20:15:30.556Z,49.20
2018-06-23T20:17:58.954Z,49.40
2018-06-23T20:20:27.465Z,49.00
2018-06-23T20:22:55.914Z,48.90
2018-06-23T20:25:24.413Z,48.80
2018-06-23T20:27:52.930Z,48.90
2018-06-23T20:30:21.350Z,48.60
2018-06-23T20:32:49.845Z,48.20
2018-06-23T20:35:18.289Z,48.00
2018-06-23T20:37:46.851Z,48.20
2018-06-23T20:40:15.466Z,47.90
2018-06-23T20:42:43.896Z,48.30
2018-06-23T20:45:12.462Z,48.20
2018-06-23T20:47:40.888Z,47.90
2018-06-23T20:50:09.570Z,48.00
2018-06-23T20:52:38.046Z,48.00
2018-06-23T20:55:06.651Z,48.30
2018-06-23T20:57:35.063Z,48.20
2018-06-23T21:00:03.730Z,48.10
2018-06-23T21:02:32.170Z,48.20
2018-06-23T21:05:00.795Z,48.40
2018-06-23T21:07:29.245Z,48.60
2018-06-23T21:09:57.773Z,48.80
2018-06-23T21:12:26.177Z,48.80
2018-06-23T21:14:54.726Z,48.70
2018-06-23T21:17:23.173Z,49.50
2018-06-23T21:19:51.685Z,48.90
2018-06-23T21:22:20.107Z,49.10
2018-06-23T21:24:48.617Z,49.20
2018-06-23T21:27:16.993Z,49.20
2018-06-23T21:29:45.522Z,49.30
2018-06-23T21:32:13.945Z,49.40
2018-06-23T21:34:42.637Z,49.60
2018-06-23T21:37:11.229Z,49.40
2018-06-23T21:39:39.628Z,49.50
2018-06-23T21:42:08.157Z,49.70
2018-06-23T21:44:36.763Z,49.80
2018-06-23T21:47:05.267Z,49.90
2018-06-23T21:49:33.772Z,49.80
2018-06-23T21:52:02.262Z,50.10
2018-06-23T21:54:30.675Z,50.10
2018-06-23T21:56:59.180Z,50.20
2018-06-23T21:59:27.600Z,50.20
2018-06-23T22:01:56.047Z,50.70
2018-06-23T22:04:24.534Z,50.60
2018-06-23T22:06:53.001Z,50.70
2018-06-23T22:09:21.414Z,50.80
2018-06-23T22:11:49.846Z,51.10
2018-06-23T22:14:18.421Z,51.00
2018-06-23T22:16:46.806Z,51.20
2018-06-23T22:19:15.293Z,51.30
2018-06-23T22:21:43.699Z,51.70
2018-06-23T22:24:12.092Z,51.80
2018-06-23T22:26:40.508Z,51.70
2018-06-23T22:29:09.049Z,51.60
2018-06-23T22:31:37.533Z,51.60
2018-06-23T22:34:06.662Z,51.60
2018-06-23T22:36:35.095Z,51.60
2018-06-23T22:39:04.863Z,52.10
2018-06-23T22:41:33.313Z,52.00
2018-06-23T22:44:01.934Z,52.20
2018-06-23T22:46:30.329Z,52.30
2018-06-23T22:48:58.776Z,52.50
2018-06-23T22:51:27.257Z,53.20
2018-06-23T22:53:55.687Z,52.90
2018-06-23T22:56:24.197Z,53.00
2018-06-23T22:58:52.571Z,53.10
2018-06-23T23:01:21.213Z,53.10
2018-06-23T23:03:49.784Z,52.90
2018-06-23T23:06:18.211Z,52.80
2018-06-23T23:08:46.566Z,52.80
2018-06-23T23:11:15.043Z,52.50
2018-06-23T23:13:43.409Z,52.60
2018-06-23T23:16:11.813Z,52.50
2018-06-23T23:18:40.223Z,52.60
2018-06-23T23:21:08.595Z,52.50
2018-06-23T23:23:37.081Z,52.40
2018-06-23T23:26:05.630Z,52.40
2018-06-23T23:28:34.141Z,52.60
2018-06-23T23:31:02.705Z,52.70
2018-06-23T23:33:31.143Z,52.80
2018-06-23T23:35:59.562Z,52.80
2018-06-23T23:38:27.933Z,53.10
2018-06-23T23:40:56.363Z,53.00
2018-06-23T23:43:24.896Z,53.20
2018-06-23T23:45:53.277Z,53.40
2018-06-23T23:48:21.838Z,53.90
2018-06-23T23:50:50.364Z,54.40
2018-06-23T23:53:18.755Z,54.70
2018-06-23T23:55:47.151Z,54.10
2018-06-23T23:58:15.554Z,54.70
